SBOSBO CAI / HECA
Speedbird OnlineSpeedbird Online CAI / HECA

Cairo International Airport
15:43 17°C

Location Cairo, Egypt
Latitude: 30.12190055847168
Longitude: 31.40559959411621
Web Wikipedia
Altitude 116 Meter / 382 Feet
Distance 3,499 KM / 2,174 Miles
from London.
Time Zone UTC +2 hours (Africa/Cairo)
Codes IATA: CAI
ICAO: HECA
Currency £1 equals EGP 37.15
Runways
RunwayLength (m)Surface
05C3999Asphalt
05L3301Asphalt
05R4000Asphalt
23C3999Asphalt
23L4000Asphalt
23R3301Asphalt
Radio
TypeDescriptionFrequency
APPAPP119.05
ATISATIS122.6
GNDGND121.9
MISCVOLMET126.2
PFLTPREFLIGHT120.1
TWRTWR118.1
Volmet124.6
rdocairo radio11.3
Live ATC
METAR HECA 311300Z 24008KT 9999 BKN025 17/05 Q1012
TAF TAF HECA 310500Z 3106/0112 23012KT CAVOK TEMPO 3106/3121 23010G20KT 4000 SA NSC
Weather As Of 31 Jan 2023 15:43
Description Broken clouds
Wind 15 km/h from South-West (240°)
Cloud Cover 75%
Precipitation Rain: none, Snow: none
Sunrise 06:45
Sunset 17:29
Lounges First Class Lounge, Terminal 2
Ahlein Premium Lounge, Terminal 2
Pearl Lounge , Terminal 2, Mezzanine Level
Rotations During the last 90 days there were
157 flights from LHR
154 flights to LHR



Support Speedbird Online

© 2017-2023 Speedbird Online